Time;durP1;ratioP1;P1;durP2;ratioP2;P2;SDS_P1;SDS_P2;PMS_P1;PMS_P2;Temp;Humidity;BMP_temperature;BMP_pressure;BME280_temperature;BME280_humidity;BME280_pressure;Samples;Min_cycle;Max_cycle;Signal;HPM_P1;HPM_P2
2023/06/19 00:01:09;;;;;;;10.75;8.77;;;;;;;23.99;59.91;99806.53;4947988;28;20050;-71
2023/06/19 00:03:35;;;;;;;10.40;9.02;;;;;;;24.02;60.22;99819.72;4925851;29;20055;-72
2023/06/19 00:06:03;;;;;;;11.02;9.15;;;;;;;23.97;60.69;99813.97;4948220;28;20105;-71
2023/06/19 00:08:30;;;;;;;10.75;8.98;;;;;;;23.96;60.97;99811.41;4951057;28;20129;-71
2023/06/19 00:10:57;;;;;;;10.02;9.02;;;;;;;23.94;60.98;99800.78;4945744;28;20098;-71
2023/06/19 00:13:24;;;;;;;9.55;8.65;;;;;;;23.93;60.97;99799.09;4925156;29;21822;-72
2023/06/19 00:15:51;;;;;;;9.55;8.60;;;;;;;23.89;61.20;99789.66;4938055;28;20070;-71
2023/06/19 00:18:19;;;;;;;12.32;9.10;;;;;;;23.85;61.39;99785.59;4950763;28;20490;-70
2023/06/19 00:20:46;;;;;;;10.30;9.20;;;;;;;23.86;61.46;99783.75;4944588;28;20701;-71
2023/06/19 00:23:14;;;;;;;11.93;9.80;;;;;;;23.89;61.62;99794.22;4937740;28;20055;-71
2023/06/19 00:25:43;;;;;;;10.13;9.05;;;;;;;23.88;61.81;99789.81;4946737;28;20135;-71
2023/06/19 00:28:12;;;;;;;10.43;9.32;;;;;;;23.83;61.82;99779.50;4944574;28;20055;-71
2023/06/19 00:30:41;;;;;;;11.80;8.63;;;;;;;23.76;61.81;99770.41;4944269;28;20082;-71
2023/06/19 00:33:08;;;;;;;10.57;9.43;;;;;;;23.80;62.22;99777.16;4945190;28;20418;-71
2023/06/19 00:35:35;;;;;;;10.52;9.32;;;;;;;23.83;61.69;99778.66;4946710;28;20122;-71
2023/06/19 00:38:03;;;;;;;11.80;8.68;;;;;;;23.78;61.53;99774.59;4948485;28;20142;-71
2023/06/19 00:40:32;;;;;;;9.48;8.57;;;;;;;23.80;62.03;99777.16;4944504;28;20142;-71
2023/06/19 00:42:59;;;;;;;9.50;8.60;;;;;;;23.75;62.61;99777.69;4928080;29;20067;-72
2023/06/19 00:45:27;;;;;;;9.93;8.88;;;;;;;23.69;63.01;99780.22;4928834;28;20467;-71
2023/06/19 00:47:55;;;;;;;9.82;8.90;;;;;;;23.62;63.17;99777.34;4947611;28;20047;-71
2023/06/19 00:50:22;;;;;;;11.32;9.35;;;;;;;23.52;64.22;99768.56;4947824;28;20075;-71
2023/06/19 00:52:50;;;;;;;11.27;9.18;;;;;;;23.53;65.40;99769.41;4947502;28;20057;-71
2023/06/19 00:55:17;;;;;;;9.75;8.85;;;;;;;23.43;65.68;99756.91;4944168;28;20055;-71
2023/06/19 00:57:44;;;;;;;10.30;9.20;;;;;;;23.45;66.83;99767.53;4942480;28;20138;-70
2023/06/19 01:00:12;;;;;;;9.88;8.43;;;;;;;23.39;67.73;99771.75;4931701;29;20106;-70
2023/06/19 01:02:39;;;;;;;12.25;8.73;;;;;;;23.32;68.72;99784.25;4935429;28;20508;-71
2023/06/19 01:05:08;;;;;;;12.20;8.85;;;;;;;23.22;69.82;99777.31;4921635;29;20051;-71
2023/06/19 01:07:44;;;;;;;9.77;8.88;;;;;;;23.14;70.62;99778.16;4929967;29;20580;-70
2023/06/19 01:10:21;;;;;;;9.80;8.85;;;;;;;23.08;71.91;99771.56;4945007;28;20055;-72
2023/06/19 01:13:12;;;;;;;12.55;9.55;;;;;;;23.11;72.95;99778.50;4926660;28;20051;-71
2023/06/19 01:15:41;;;;;;;11.52;9.43;;;;;;;23.04;73.96;99783.72;4939429;28;20046;-71
2023/06/19 01:18:11;;;;;;;10.63;9.63;;;;;;;22.95;75.49;99775.78;4946310;29;20299;-70
2023/06/19 01:20:38;;;;;;;10.77;9.30;;;;;;;22.86;76.44;99776.75;4899802;29;20110;-70
2023/06/19 01:23:07;;;;;;;10.60;9.43;;;;;;;22.79;77.17;99791.94;4946980;28;20135;-71
2023/06/19 01:25:35;;;;;;;10.45;9.45;;;;;;;22.64;78.55;99783.59;4929642;28;20485;-71
2023/06/19 01:28:05;;;;;;;10.95;9.77;;;;;;;22.54;80.01;99791.81;4949278;28;20070;-70
2023/06/19 01:30:33;;;;;;;12.98;10.70;;;;;;;22.40;80.87;99787.91;4948465;28;20048;-71
2023/06/19 01:33:16;;;;;;;11.70;10.40;;;;;;;22.30;81.94;99789.03;4948497;28;20047;-71
2023/06/19 01:35:44;;;;;;;12.00;10.40;;;;;;;22.31;83.36;99832.03;4931719;28;20047;-72
2023/06/19 01:38:12;;;;;;;11.70;10.50;;;;;;;22.24;83.95;99808.56;4936762;28;20145;-71
2023/06/19 01:40:41;;;;;;;11.23;9.70;;;;;;;22.24;84.14;99786.97;4946744;28;20425;-71
2023/06/19 01:43:11;;;;;;;11.05;9.98;;;;;;;22.26;84.08;99795.75;4934084;28;20070;-71
2023/06/19 01:45:38;;;;;;;11.90;9.40;;;;;;;22.26;84.25;99791.22;4925014;29;20102;-71
2023/06/19 01:48:05;;;;;;;11.13;9.90;;;;;;;22.25;84.14;99792.22;4931808;29;20050;-71
2023/06/19 01:50:32;;;;;;;10.52;9.52;;;;;;;22.19;83.89;99792.03;4931985;28;20564;-71
2023/06/19 01:52:59;;;;;;;10.75;9.75;;;;;;;22.20;84.16;99808.03;4952383;28;20051;-71
2023/06/19 01:55:25;;;;;;;10.70;9.57;;;;;;;22.15;84.57;99802.28;4944132;28;20113;-71
2023/06/19 01:57:52;;;;;;;12.10;9.60;;;;;;;22.13;85.22;99812.38;4934794;29;20161;-71
2023/06/19 02:00:19;;;;;;;11.02;9.60;;;;;;;22.11;85.06;99800.06;4930143;28;20051;-71
2023/06/19 02:02:47;;;;;;;11.13;9.90;;;;;;;22.08;84.76;99798.53;4950150;28;20048;-71
2023/06/19 02:05:16;;;;;;;10.25;9.25;;;;;;;22.05;84.98;99801.53;4928051;29;20044;-71
2023/06/19 02:07:44;;;;;;;10.90;9.70;;;;;;;22.00;85.28;99791.25;4953443;28;20477;-70
2023/06/19 02:10:11;;;;;;;10.80;9.70;;;;;;;21.94;84.97;99796.38;4932063;29;20055;-71
2023/06/19 02:12:37;;;;;;;11.23;9.82;;;;;;;22.03;85.40;99801.72;4931446;29;20119;-70
2023/06/19 02:15:04;;;;;;;11.75;10.23;;;;;;;22.05;85.10;99790.75;4943412;29;20055;-69
2023/06/19 02:17:31;;;;;;;11.93;9.88;;;;;;;22.06;85.09;99795.13;4947634;28;20126;-70
2023/06/19 02:19:58;;;;;;;10.43;9.13;;;;;;;22.09;84.06;99802.91;4933420;29;20557;-70
2023/06/19 02:22:25;;;;;;;11.13;9.25;;;;;;;22.04;84.17;99802.53;4934155;29;20132;-69
2023/06/19 02:24:51;;;;;;;10.70;9.60;;;;;;;21.99;84.04;99803.03;4943762;28;20039;-70
2023/06/19 02:27:20;;;;;;;10.90;9.80;;;;;;;22.05;83.55;99810.47;4950854;28;20062;-70
2023/06/19 02:29:47;;;;;;;11.27;9.98;;;;;;;22.04;82.83;99805.22;4936617;28;20043;-70
2023/06/19 02:32:13;;;;;;;11.18;10.07;;;;;;;22.13;82.20;99825.03;4949932;28;20051;-70
2023/06/19 02:34:40;;;;;;;12.23;9.98;;;;;;;21.97;82.00;99823.03;4942150;28;20235;-70
2023/06/19 02:37:08;;;;;;;10.68;9.68;;;;;;;22.05;81.56;99836.59;4932289;29;20534;-70
2023/06/19 02:39:34;;;;;;;10.40;9.35;;;;;;;21.99;81.94;99839.91;4951300;28;20055;-70
2023/06/19 02:42:01;;;;;;;11.02;10.00;;;;;;;21.93;82.23;99838.66;4946233;28;20521;-70
2023/06/19 02:44:27;;;;;;;14.30;9.98;;;;;;;21.93;82.36;99854.00;4928471;29;20047;-71
2023/06/19 02:46:54;;;;;;;12.32;10.27;;;;;;;21.91;81.59;99864.94;4947719;28;20138;-70
2023/06/19 02:49:21;;;;;;;12.23;10.50;;;;;;;21.89;81.88;99861.53;4950988;28;20050;-70
2023/06/19 02:51:47;;;;;;;12.13;9.88;;;;;;;21.92;81.29;99865.78;4942802;28;20736;-71
2023/06/19 02:54:14;;;;;;;13.32;10.40;;;;;;;21.83;80.37;99858.66;4939638;28;20043;-71
2023/06/19 02:56:41;;;;;;;12.23;10.23;;;;;;;21.90;80.31;99867.78;4945732;28;20049;-70
2023/06/19 02:59:07;;;;;;;12.43;9.55;;;;;;;21.89;80.14;99860.69;4931648;28;20039;-71
2023/06/19 03:01:35;;;;;;;11.93;9.82;;;;;;;21.92;79.75;99857.69;4931191;29;20043;-70
2023/06/19 03:04:02;;;;;;;12.82;9.82;;;;;;;22.00;78.79;99861.34;4943923;28;20126;-71
2023/06/19 03:06:29;;;;;;;9.93;9.02;;;;;;;22.04;78.28;99867.25;4929120;28;20118;-70
2023/06/19 03:08:57;;;;;;;11.60;9.68;;;;;;;22.09;76.73;99869.47;4945573;28;20055;-70
2023/06/19 03:11:27;;;;;;;9.98;8.98;;;;;;;22.11;76.26;99868.31;4928835;29;20089;-71
2023/06/19 03:13:54;;;;;;;10.95;9.95;;;;;;;22.15;75.78;99879.63;4947754;28;20115;-71
2023/06/19 03:16:21;;;;;;;10.75;9.38;;;;;;;22.22;73.43;99884.22;4944841;28;20421;-70
2023/06/19 03:18:48;;;;;;;10.23;9.23;;;;;;;22.29;72.31;99887.16;4948082;28;20569;-71
2023/06/19 03:21:21;;;;;;;10.95;9.80;;;;;;;22.34;71.48;99895.63;4932568;29;20154;-71
2023/06/19 03:23:48;;;;;;;9.65;8.75;;;;;;;22.32;71.11;99890.38;4944958;28;20051;-73
2023/06/19 03:26:15;;;;;;;10.50;9.40;;;;;;;22.32;70.10;99894.94;4945140;28;20039;-71
2023/06/19 03:28:41;;;;;;;10.00;9.00;;;;;;;22.34;69.33;99904.56;4943600;28;20150;-70
2023/06/19 03:31:08;;;;;;;9.68;8.77;;;;;;;22.42;69.23;99911.00;4942658;28;20418;-72
2023/06/19 03:33:36;;;;;;;10.13;9.23;;;;;;;22.45;68.90;99914.22;4945655;28;20046;-70
2023/06/19 03:36:03;;;;;;;10.07;8.50;;;;;;;22.56;68.56;99921.19;4930490;29;20051;-71
2023/06/19 03:38:31;;;;;;;8.95;7.82;;;;;;;22.63;67.76;99922.25;4950450;28;20051;-70
2023/06/19 03:40:58;;;;;;;8.95;7.68;;;;;;;22.66;67.23;99930.88;4945852;28;20039;-70
2023/06/19 03:43:25;;;;;;;8.52;7.72;;;;;;;22.76;66.84;99938.84;4930786;28;20126;-71
2023/06/19 03:45:51;;;;;;;9.38;8.35;;;;;;;22.84;66.00;99943.47;4939947;28;20043;-71
2023/06/19 03:48:18;;;;;;;8.98;8.07;;;;;;;22.85;65.66;99937.06;4926860;29;20458;-71
2023/06/19 03:50:45;;;;;;;8.93;7.85;;;;;;;22.92;65.36;99935.41;4927775;28;20122;-72
2023/06/19 03:53:11;;;;;;;8.55;7.75;;;;;;;22.96;65.52;99947.59;4914485;28;20051;-72
2023/06/19 03:55:38;;;;;;;9.10;7.97;;;;;;;23.00;65.18;99947.06;4940683;28;20626;-71
2023/06/19 03:58:06;;;;;;;9.18;8.18;;;;;;;22.98;65.21;99948.28;4913985;28;20058;-71
2023/06/19 04:00:33;;;;;;;9.52;8.38;;;;;;;22.92;65.86;99946.22;4939448;28;20058;-70
2023/06/19 04:03:00;;;;;;;9.18;8.27;;;;;;;22.85;66.16;99951.41;4928987;28;20114;-71
2023/06/19 04:05:27;;;;;;;10.20;8.77;;;;;;;22.74;66.77;99957.91;4926184;29;20043;-71
2023/06/19 04:07:54;;;;;;;11.18;8.73;;;;;;;22.65;67.48;99966.97;4924296;28;20127;-70
2023/06/19 04:10:22;;;;;;;10.35;9.25;;;;;;;22.59;68.19;99972.16;4945020;28;20051;-71
2023/06/19 04:12:50;;;;;;;11.15;9.40;;;;;;;22.57;68.06;99985.78;4945094;28;20421;-71
2023/06/19 04:15:17;;;;;;;9.98;8.98;;;;;;;22.56;68.50;99983.25;4939825;28;20063;-71
2023/06/19 04:17:43;;;;;;;16.27;9.13;;;;;;;22.53;68.96;99987.09;4952665;28;20413;-71
2023/06/19 04:20:11;;;;;;;11.18;9.00;;;;;;;22.50;70.61;99987.44;4931172;29;20177;-71
2023/06/19 04:22:39;;;;;;;11.32;9.15;;;;;;;22.46;72.97;99996.84;4940591;28;20051;-71
2023/06/19 04:25:10;;;;;;;13.70;9.25;;;;;;;22.40;80.05;99992.09;4953827;29;20474;-72
2023/06/19 04:27:37;;;;;;;10.40;9.23;;;;;;;22.35;82.50;99999.81;4954302;28;20050;-71
2023/06/19 04:30:06;;;;;;;12.50;9.13;;;;;;;22.25;83.88;99997.19;4958094;28;20047;-72
2023/06/19 04:32:40;;;;;;;11.75;9.07;;;;;;;22.12;84.32;100002.16;4958626;28;20053;-71
2023/06/19 04:35:08;;;;;;;9.35;7.90;;;;;;;22.00;86.09;100014.19;4918898;29;20526;-72
2023/06/19 04:37:35;;;;;;;11.05;9.50;;;;;;;21.99;92.60;100025.94;4933356;29;20446;-71
2023/06/19 04:40:03;;;;;;;12.52;8.93;;;;;;;21.98;88.96;100019.69;4949541;28;20394;-72
2023/06/19 04:42:31;;;;;;;9.68;8.70;;;;;;;21.99;90.94;100021.41;4924804;29;20319;-71
2023/06/19 04:44:59;;;;;;;9.88;8.43;;;;;;;22.05;92.22;100026.16;4923157;28;20051;-72
2023/06/19 04:47:26;;;;;;;9.40;8.43;;;;;;;22.11;91.56;100022.03;4933150;28;20039;-71
2023/06/19 04:50:07;;;;;;;9.00;7.95;;;;;;;22.15;88.75;100018.03;4947736;28;20051;-72
2023/06/19 04:52:35;;;;;;;8.82;7.68;;;;;;;22.21;89.11;100019.22;4915335;29;20050;-71
2023/06/19 04:55:02;;;;;;;10.30;8.25;;;;;;;22.35;89.42;100016.81;4926543;29;20613;-71
2023/06/19 04:57:28;;;;;;;11.90;8.38;;;;;;;22.46;87.93;100014.91;4929082;29;20047;-71
2023/06/19 04:59:55;;;;;;;8.45;7.65;;;;;;;22.64;85.30;100015.72;4932700;29;20051;-71
2023/06/19 05:02:23;;;;;;;8.02;7.20;;;;;;;22.75;84.24;100021.69;4933651;29;20138;-71
2023/06/19 05:04:51;;;;;;;9.35;7.47;;;;;;;22.80;83.49;100010.44;4926982;28;20059;-71
2023/06/19 05:07:18;;;;;;;8.90;7.30;;;;;;;22.91;82.62;100022.81;4937726;28;20043;-70
2023/06/19 05:09:45;;;;;;;11.25;7.32;;;;;;;22.97;83.83;100023.03;4941866;29;20517;-70
2023/06/19 05:12:12;;;;;;;7.85;6.75;;;;;;;22.99;81.11;100017.44;4951684;28;20053;-71
2023/06/19 05:14:39;;;;;;;8.55;6.63;;;;;;;23.04;81.10;100012.41;4950012;28;20044;-71
2023/06/19 05:17:06;;;;;;;7.28;6.57;;;;;;;23.05;82.02;100014.13;4929546;28;20051;-70
2023/06/19 05:19:34;;;;;;;7.22;6.53;;;;;;;23.08;82.36;100016.50;4949862;28;20047;-71
2023/06/19 05:22:02;;;;;;;9.77;7.20;;;;;;;23.08;81.51;100016.50;4938385;29;20055;-70
2023/06/19 05:24:29;;;;;;;8.48;6.38;;;;;;;23.08;81.43;100011.09;4936141;29;20047;-71
2023/06/19 05:26:56;;;;;;;7.60;6.80;;;;;;;23.14;80.38;100010.44;4928809;29;20040;-72
2023/06/19 05:29:24;;;;;;;6.78;6.18;;;;;;;23.19;80.46;100018.91;4931574;29;20051;-72
2023/06/19 05:31:52;;;;;;;9.03;6.43;;;;;;;23.20;80.68;100011.66;4953697;28;20059;-71
2023/06/19 05:34:19;;;;;;;6.95;6.25;;;;;;;23.16;80.02;100013.81;4929755;29;20086;-71
2023/06/19 05:36:47;;;;;;;7.78;6.43;;;;;;;23.21;79.76;100014.19;4925214;29;20043;-71
2023/06/19 05:39:13;;;;;;;7.15;6.13;;;;;;;23.33;78.67;100014.75;4914233;29;20136;-70
2023/06/19 05:41:40;;;;;;;6.97;5.70;;;;;;;23.42;78.72;100011.91;4934070;29;20489;-71
2023/06/19 05:44:07;;;;;;;8.00;6.38;;;;;;;23.40;77.73;100004.97;4934581;29;20043;-71
2023/06/19 05:46:33;;;;;;;6.32;5.72;;;;;;;23.53;75.90;100007.25;4909680;29;20140;-70
2023/06/19 05:49:00;;;;;;;6.30;5.70;;;;;;;23.70;76.43;100008.97;4935470;29;20182;-71
2023/06/19 05:51:28;;;;;;;7.57;6.20;;;;;;;23.86;75.94;100011.72;4915668;29;20050;-71
2023/06/19 05:53:54;;;;;;;5.78;5.18;;;;;;;23.98;72.64;100021.19;4935388;28;20047;-71
2023/06/19 05:56:21;;;;;;;7.32;5.38;;;;;;;23.95;72.60;100015.25;4925565;29;20054;-72
2023/06/19 05:58:49;;;;;;;6.05;5.47;;;;;;;23.82;73.67;100023.03;4928343;29;20134;-72
2023/06/19 06:01:17;;;;;;;5.72;5.13;;;;;;;23.73;73.61;100019.47;4932693;29;20055;-72
2023/06/19 06:03:44;;;;;;;6.30;5.22;;;;;;;23.87;72.12;100021.53;4920017;29;20055;-71
2023/06/19 06:06:15;;;;;;;6.60;5.32;;;;;;;23.80;72.93;100015.06;4917463;29;20050;-72
2023/06/19 06:08:41;;;;;;;6.45;4.40;;;;;;;23.59;73.98;100017.41;4932065;29;20050;-70
2023/06/19 06:11:08;;;;;;;7.10;4.93;;;;;;;23.62;74.12;100030.56;4930378;29;20051;-70
2023/06/19 06:13:35;;;;;;;5.03;4.53;;;;;;;23.58;74.65;100024.66;4910625;29;20521;-71
2023/06/19 06:16:06;;;;;;;5.65;4.55;;;;;;;23.61;75.29;100028.91;4925586;29;20420;-72
2023/06/19 06:18:33;;;;;;;7.47;4.90;;;;;;;23.64;74.89;100039.38;4929188;29;20051;-71
2023/06/19 06:21:00;;;;;;;5.70;4.53;;;;;;;23.76;75.11;100043.47;4929624;29;20059;-72
2023/06/19 06:23:27;;;;;;;5.82;4.55;;;;;;;23.90;73.24;100040.13;4916489;29;20502;-71
2023/06/19 06:26:01;;;;;;;7.90;4.80;;;;;;;24.09;73.00;100041.66;4924530;28;20162;-71
2023/06/19 06:28:28;;;;;;;5.53;4.57;;;;;;;24.20;71.58;100043.22;4914582;29;20039;-71
2023/06/19 06:30:55;;;;;;;5.20;4.13;;;;;;;24.27;71.99;100044.25;4920175;29;20051;-72
2023/06/19 06:33:22;;;;;;;4.55;4.15;;;;;;;24.53;71.53;100044.94;4935381;29;20047;-70
2023/06/19 06:35:49;;;;;;;5.10;4.25;;;;;;;24.94;68.22;100045.75;4926475;29;20055;-70
2023/06/19 06:38:16;;;;;;;5.95;4.28;;;;;;;25.25;66.62;100053.09;4947485;28;20044;-70
2023/06/19 06:40:46;;;;;;;6.43;3.95;;;;;;;25.64;64.95;100055.88;4953099;28;20510;-72
2023/06/19 06:43:14;;;;;;;4.70;4.20;;;;;;;25.98;62.46;100039.19;4933750;29;20646;-71
2023/06/19 06:45:42;;;;;;;6.28;3.80;;;;;;;26.51;60.99;100049.19;4947025;28;20461;-71
2023/06/19 06:48:09;;;;;;;4.00;3.60;;;;;;;26.96;58.49;100042.84;4932119;29;20047;-70
2023/06/19 06:50:36;;;;;;;4.57;3.60;;;;;;;27.42;55.52;100038.03;4930851;29;20055;-71
2023/06/19 06:53:03;;;;;;;4.72;3.95;;;;;;;27.40;55.82;100050.13;4946363;28;20073;-72
2023/06/19 06:55:30;;;;;;;5.07;4.57;;;;;;;27.43;56.79;100044.31;4913746;28;20047;-71
2023/06/19 06:57:56;;;;;;;4.40;4.00;;;;;;;27.59;55.44;100044.16;4929330;29;20421;-71
2023/06/19 07:00:24;;;;;;;7.97;4.10;;;;;;;27.24;55.67;100043.88;4951308;28;20492;-74
2023/06/19 07:02:51;;;;;;;6.47;3.83;;;;;;;26.97;57.74;100051.81;4937614;29;20071;-71
2023/06/19 07:05:18;;;;;;;5.78;4.18;;;;;;;26.65;56.45;100061.97;4932663;29;20051;-72
2023/06/19 07:07:45;;;;;;;5.07;3.58;;;;;;;26.40;59.46;100058.63;4945910;28;20054;-72
2023/06/19 07:10:12;;;;;;;4.88;4.20;;;;;;;26.92;56.79;100055.91;4921493;29;20051;-72
2023/06/19 07:12:48;;;;;;;4.63;4.22;;;;;;;27.19;57.08;100059.06;4926133;29;20156;-72
2023/06/19 07:15:16;;;;;;;4.30;3.90;;;;;;;27.43;54.43;100050.59;4933152;29;20114;-73
2023/06/19 07:17:47;;;;;;;8.25;4.00;;;;;;;27.41;54.81;100039.06;4927367;28;20051;-71
2023/06/19 07:20:15;;;;;;;11.07;4.15;;;;;;;26.62;57.38;100051.44;4930837;28;20529;-71
2023/06/19 07:22:43;;;;;;;5.95;4.28;;;;;;;26.49;59.11;100051.25;4947334;28;20126;-71
2023/06/19 07:25:11;;;;;;;7.70;4.20;;;;;;;26.21;59.12;100048.22;4929112;28;20039;-71
2023/06/19 07:27:41;;;;;;;4.40;3.85;;;;;;;26.24;61.88;100056.00;4925483;28;20047;-70
2023/06/19 07:30:10;;;;;;;4.85;3.97;;;;;;;26.71;58.45;100049.53;4929465;28;20071;-72
2023/06/19 07:32:41;;;;;;;5.05;3.97;;;;;;;26.95;56.54;100064.75;4943310;28;20602;-71
2023/06/19 07:35:07;;;;;;;4.13;3.72;;;;;;;27.00;55.56;100059.63;4940895;28;20150;-71
2023/06/19 07:37:36;;;;;;;5.88;3.95;;;;;;;27.14;56.80;100067.78;4924892;28;20170;-71
2023/06/19 07:40:03;;;;;;;6.88;3.90;;;;;;;27.39;56.39;100071.03;4946365;28;20542;-72
2023/06/19 07:42:30;;;;;;;6.75;3.90;;;;;;;27.80;52.66;100062.41;4948176;28;20062;-71
2023/06/19 07:44:57;;;;;;;5.80;3.65;;;;;;;28.06;52.88;100061.84;4945935;28;20051;-72
2023/06/19 07:47:26;;;;;;;5.93;3.80;;;;;;;27.91;53.29;100067.34;4938436;28;23035;-72
2023/06/19 07:49:53;;;;;;;7.17;3.77;;;;;;;27.62;54.04;100078.28;4928339;29;20047;-71
2023/06/19 07:52:19;;;;;;;6.13;3.88;;;;;;;27.09;55.40;100077.50;4914946;29;20051;-72
2023/06/19 07:54:57;;;;;;;4.85;4.13;;;;;;;26.68;55.89;100075.19;4946631;28;20051;-71
2023/06/19 07:57:26;;;;;;;4.85;4.20;;;;;;;26.34;57.47;100081.06;4941138;28;20051;-71
2023/06/19 07:59:54;;;;;;;6.20;4.00;;;;;;;26.25;58.88;100097.56;4949653;28;20047;-71
2023/06/19 08:02:21;;;;;;;5.95;4.38;;;;;;;26.19;59.09;100089.09;4928097;28;20058;-71
2023/06/19 08:04:49;;;;;;;7.43;4.15;;;;;;;25.90;60.37;100083.53;4931340;28;20058;-70
2023/06/19 08:07:16;;;;;;;7.55;3.97;;;;;;;25.63;62.22;100075.88;4925473;29;20043;-70
2023/06/19 08:09:43;;;;;;;8.20;4.18;;;;;;;25.98;64.60;100086.19;4940158;28;20043;-71
2023/06/19 08:12:13;;;;;;;5.60;4.25;;;;;;;26.60;60.14;100088.84;4947634;28;20071;-71
2023/06/19 08:14:42;;;;;;;6.25;4.43;;;;;;;26.94;57.40;100091.09;4946047;28;20795;-71
2023/06/19 08:17:09;;;;;;;5.13;4.10;;;;;;;27.12;57.24;100097.00;4906592;29;20054;-73
2023/06/19 08:19:38;;;;;;;5.43;4.40;;;;;;;27.24;55.69;100100.94;4932918;28;20127;-72
2023/06/19 08:22:06;;;;;;;5.32;4.50;;;;;;;26.82;57.26;100090.66;4929995;29;20049;-72
2023/06/19 08:24:33;;;;;;;6.03;4.00;;;;;;;27.07;57.26;100085.03;4946524;28;20048;-74
2023/06/19 08:27:00;;;;;;;7.57;4.38;;;;;;;27.43;56.41;100096.84;4944487;28;20055;-73
2023/06/19 08:29:27;;;;;;;5.30;4.15;;;;;;;26.69;56.76;100105.91;4923588;28;20575;-71
2023/06/19 08:31:54;;;;;;;5.22;4.00;;;;;;;26.52;59.68;100097.88;4927309;28;20605;-71
2023/06/19 08:34:22;;;;;;;6.05;4.28;;;;;;;26.77;56.58;100097.66;4951883;28;20071;-71
2023/06/19 08:36:49;;;;;;;5.82;5.00;;;;;;;26.79;57.96;100096.47;4945715;28;20055;-72
2023/06/19 08:39:16;;;;;;;6.60;4.25;;;;;;;26.83;57.86;100111.38;4950070;28;20462;-72
2023/06/19 08:41:45;;;;;;;6.78;4.15;;;;;;;26.97;57.84;100104.31;4934208;28;20142;-73
2023/06/19 08:44:14;;;;;;;4.43;4.00;;;;;;;27.36;56.98;100109.50;4947010;28;20119;-72
2023/06/19 08:46:41;;;;;;;5.07;3.80;;;;;;;27.59;56.70;100120.31;4948847;28;20047;-74
2023/06/19 08:49:10;;;;;;;5.85;4.05;;;;;;;27.52;55.14;100114.75;4935492;28;20162;-72
2023/06/19 08:51:36;;;;;;;4.18;3.78;;;;;;;27.58;54.82;100124.06;4952802;28;20043;-73
2023/06/19 08:54:05;;;;;;;5.65;4.38;;;;;;;27.70;54.37;100119.00;4950630;28;20134;-73
2023/06/19 08:56:37;;;;;;;6.07;5.38;;;;;;;28.04;52.04;100111.03;4945732;28;20047;-74
2023/06/19 08:59:15;;;;;;;4.88;3.75;;;;;;;28.09;52.09;100107.75;4947602;28;20145;-71
2023/06/19 09:01:54;;;;;;;6.53;4.10;;;;;;;28.54;50.79;100114.75;4951020;28;20489;-72
2023/06/19 09:04:28;;;;;;;6.25;4.40;;;;;;;28.64;49.69;100101.66;4943043;28;20078;-71
2023/06/19 09:07:00;;;;;;;4.38;3.95;;;;;;;28.19;50.81;100113.75;4943809;28;20406;-71
2023/06/19 09:09:28;;;;;;;5.57;4.07;;;;;;;28.03;52.82;100112.06;4929847;28;21790;-72
2023/06/19 09:12:03;;;;;;;4.43;3.83;;;;;;;28.28;51.07;100115.34;4945107;28;20071;-71
2023/06/19 09:14:43;;;;;;;4.40;3.78;;;;;;;28.64;50.60;100104.38;4941580;28;20481;-70
2023/06/19 09:17:19;;;;;;;4.53;4.13;;;;;;;29.01;48.85;100100.50;4938627;28;20043;-71
2023/06/19 09:19:57;;;;;;;5.47;4.15;;;;;;;29.16;48.86;100111.31;4922782;28;20051;-72
2023/06/19 09:22:25;;;;;;;5.70;4.40;;;;;;;28.93;48.98;100106.97;4928503;28;20119;-70
2023/06/19 09:24:51;;;;;;;5.50;4.30;;;;;;;28.28;50.75;100105.28;4932160;29;20046;-72
2023/06/19 09:27:20;;;;;;;5.53;4.30;;;;;;;27.92;51.21;100109.84;4929850;28;20057;-71
2023/06/19 09:29:49;;;;;;;5.30;4.43;;;;;;;27.36;53.56;100101.34;4951065;28;20063;-71
2023/06/19 09:32:28;;;;;;;4.20;3.90;;;;;;;27.01;55.40;100094.75;4949773;28;20053;-71
2023/06/19 09:35:00;;;;;;;5.82;4.60;;;;;;;26.97;56.40;100108.91;4930714;29;20047;-71
2023/06/19 09:37:30;;;;;;;4.53;4.13;;;;;;;27.15;56.41;100104.81;4930895;28;20055;-71
2023/06/19 09:39:58;;;;;;;8.10;4.68;;;;;;;27.55;55.43;100108.06;4954223;28;20544;-70
2023/06/19 09:42:30;;;;;;;4.70;4.18;;;;;;;27.97;53.76;100096.53;4935042;28;20050;-72
2023/06/19 09:45:04;;;;;;;8.52;7.57;;;;;;;28.52;50.80;100104.03;4948935;28;20043;-70
2023/06/19 09:47:53;;;;;;;6.68;4.88;;;;;;;28.96;49.99;100111.19;4927889;28;20762;-71
2023/06/19 09:50:26;;;;;;;4.35;3.92;;;;;;;29.25;48.28;100116.44;4930205;28;20095;-73
2023/06/19 09:52:55;;;;;;;6.85;4.47;;;;;;;29.21;49.07;100112.41;4950119;28;20531;-71
2023/06/19 09:55:24;;;;;;;7.28;4.80;;;;;;;28.83;48.93;100105.59;4950043;28;20138;-71
2023/06/19 09:57:53;;;;;;;4.72;3.70;;;;;;;28.79;49.06;100104.31;4942929;28;20051;-72
2023/06/19 10:00:25;;;;;;;5.68;5.18;;;;;;;29.04;48.62;100102.84;4950086;28;20055;-72
2023/06/19 10:02:53;;;;;;;4.22;3.83;;;;;;;29.08;48.98;100103.28;4933340;28;20136;-72
2023/06/19 10:05:31;;;;;;;4.70;3.85;;;;;;;29.14;47.97;100102.47;4946491;28;20055;-72
2023/06/19 10:08:03;;;;;;;7.45;4.70;;;;;;;29.41;47.77;100101.66;4942004;28;20055;-73
2023/06/19 10:10:31;;;;;;;4.35;3.95;;;;;;;29.73;45.65;100100.16;4948568;28;20047;-72
2023/06/19 10:13:10;;;;;;;;;;;;;;;29.54;46.85;100103.63;4949395;28;20479;-71
2023/06/19 10:15:44;;;;;;;5.70;4.57;;;;;;;29.61;46.90;100099.84;4934657;28;19923;-70
2023/06/19 10:18:18;;;;;;;7.53;4.38;;;;;;;29.74;45.49;100098.25;4921522;28;20057;-72
2023/06/19 10:20:46;;;;;;;5.68;4.00;;;;;;;29.87;45.95;100106.50;4939952;28;20047;-70
2023/06/19 10:23:19;;;;;;;;;;;;;;;29.90;44.80;100111.56;4946944;28;20051;-74
2023/06/19 10:25:48;;;;;;;5.75;5.15;;;;;;;30.07;44.87;100110.16;4931495;28;19982;-71
2023/06/19 10:28:19;;;;;;;4.97;4.47;;;;;;;29.82;45.37;100106.25;4949093;28;20079;-73
2023/06/19 10:31:01;;;;;;;6.65;5.03;;;;;;;29.60;46.90;100100.06;4937653;28;20043;-72
2023/06/19 10:33:36;;;;;;;4.60;4.20;;;;;;;29.64;46.92;100106.81;4942119;28;20468;-71
2023/06/19 10:36:25;;;;;;;7.40;4.82;;;;;;;28.75;48.52;100097.56;4947153;28;20043;-73
2023/06/19 10:38:53;;;;;;;5.60;5.00;;;;;;;28.66;49.13;100107.72;4923674;29;20051;-71
2023/06/19 10:41:25;;;;;;;5.20;4.47;;;;;;;28.26;50.17;100111.97;4948856;28;20138;-72
2023/06/19 10:44:12;;;;;;;5.25;4.75;;;;;;;28.05;51.98;100112.72;4917838;28;20417;-72
2023/06/19 10:46:40;;;;;;;5.15;4.63;;;;;;;28.41;50.92;100104.56;4934927;28;20065;-73
2023/06/19 10:49:10;;;;;;;6.45;4.30;;;;;;;28.76;49.42;100099.25;4922278;28;20050;-75
2023/06/19 10:51:41;;;;;;;4.75;4.35;;;;;;;29.10;48.31;100103.94;4949960;28;20043;-73
2023/06/19 10:54:08;;;;;;;5.90;5.05;;;;;;;29.39;47.33;100100.19;4947070;28;20043;-72
2023/06/19 10:56:35;;;;;;;4.40;4.00;;;;;;;29.62;47.57;100093.38;4932290;29;20047;-77
2023/06/19 10:59:14;;;;;;;5.13;3.85;;;;;;;29.58;46.89;100088.53;4945036;28;20134;-74
2023/06/19 11:01:46;;;;;;;4.35;3.70;;;;;;;29.46;46.70;100085.50;4929369;28;20802;-79
2023/06/19 11:04:14;;;;;;;4.20;3.50;;;;;;;29.17;47.77;100086.56;4946996;28;20069;-71
2023/06/19 11:06:43;;;;;;;6.10;4.78;;;;;;;29.06;47.63;100102.66;4937708;29;20882;-74
2023/06/19 11:09:11;;;;;;;4.22;3.92;;;;;;;29.05;47.42;100096.34;4946964;28;20058;-73
2023/06/19 11:11:44;;;;;;;5.15;4.40;;;;;;;28.58;48.56;100086.94;4931652;28;20043;-76
2023/06/19 11:14:15;;;;;;;4.22;3.83;;;;;;;28.45;48.99;100088.69;4947452;28;20057;-73
2023/06/19 11:16:45;;;;;;;5.47;4.60;;;;;;;28.81;48.88;100094.06;4931249;29;20067;-73
2023/06/19 11:19:30;;;;;;;4.15;3.70;;;;;;;29.16;47.45;100092.22;4942907;28;20047;-75
2023/06/19 11:21:57;;;;;;;5.25;3.72;;;;;;;29.18;47.03;100090.13;4934116;28;20096;-75
2023/06/19 11:24:25;;;;;;;6.10;4.18;;;;;;;29.08;46.28;100089.66;4932261;28;20783;-74
2023/06/19 11:26:58;;;;;;;4.28;3.80;;;;;;;28.53;48.11;100080.38;4946981;28;20075;-74
2023/06/19 11:29:30;;;;;;;4.82;4.00;;;;;;;28.56;48.75;100075.38;4924200;28;21648;-74
2023/06/19 11:32:24;;;;;;;4.40;4.00;;;;;;;28.73;49.34;100078.66;4912682;28;20047;-73
2023/06/19 11:34:53;;;;;;;5.75;4.00;;;;;;;28.62;48.85;100074.59;4934030;29;20086;-74